createdAt,value
2023-01-29T00:03:09.750Z,98748.88
2023-01-29T00:07:27.209Z,98748.66
2023-01-29T00:11:45.233Z,98760.47
2023-01-29T00:16:03.833Z,98748.66
2023-01-29T00:20:21.308Z,98743.00
2023-01-29T00:24:38.861Z,98754.16
2023-01-29T00:28:57.677Z,98761.44
2023-01-29T00:33:15.288Z,98763.63
2023-01-29T00:37:33.039Z,98760.47
2023-01-29T00:42:25.818Z,98768.94
2023-01-29T00:46:43.696Z,98770.13
2023-01-29T00:51:02.855Z,98777.97
2023-01-29T00:55:21.120Z,98773.53
2023-01-29T00:59:38.536Z,98772.56
2023-01-29T01:03:56.168Z,98777.78
2023-01-29T01:08:32.454Z,98785.34
2023-01-29T01:13:19.609Z,98790.97
2023-01-29T01:17:37.044Z,98780.56
2023-01-29T01:21:54.698Z,98787.16
2023-01-29T01:26:12.365Z,98769.97
2023-01-29T01:30:30.070Z,98765.31
2023-01-29T01:34:47.584Z,98761.69
2023-01-29T01:39:05.308Z,98763.97
2023-01-29T01:43:22.935Z,98748.09
2023-01-29T01:47:46.708Z,98757.72
2023-01-29T01:52:04.822Z,98755.38
2023-01-29T01:56:29.195Z,98744.88
2023-01-29T02:00:46.732Z,98730.91
2023-01-29T02:05:23.509Z,98721.69
2023-01-29T02:09:49.229Z,98724.44
2023-01-29T02:14:07.492Z,98723.09
2023-01-29T02:18:24.914Z,98742.28
2023-01-29T02:23:15.273Z,98724.66
2023-01-29T02:28:19.047Z,98728.94
2023-01-29T02:32:54.527Z,98720.41
2023-01-29T02:37:14.169Z,98718.22
2023-01-29T02:41:46.259Z,98714.53
2023-01-29T02:46:33.142Z,98738.97
2023-01-29T02:51:03.637Z,98728.53
2023-01-29T02:55:49.233Z,98731.53
2023-01-29T03:00:38.261Z,98747.72
2023-01-29T03:05:03.337Z,98730.16
2023-01-29T03:09:34.898Z,98732.31
2023-01-29T03:14:13.637Z,98741.34
2023-01-29T03:18:43.768Z,98743.53
2023-01-29T03:23:10.782Z,98751.97
2023-01-29T03:28:19.796Z,98765.22
2023-01-29T03:32:38.717Z,98755.59
2023-01-29T03:37:05.861Z,98756.13
2023-01-29T03:41:34.764Z,98757.19
2023-01-29T03:46:23.353Z,98747.59
2023-01-29T03:51:02.046Z,98742.38
2023-01-29T03:55:56.173Z,98731.75
2023-01-29T04:00:21.315Z,98720.72
2023-01-29T04:04:42.703Z,98722.34
2023-01-29T04:09:22.409Z,98736.34
2023-01-29T04:13:40.370Z,98731.38
2023-01-29T04:17:57.882Z,98725.34
2023-01-29T04:22:25.816Z,98711.34
2023-01-29T04:27:00.282Z,98698.28
2023-01-29T04:31:19.959Z,98697.97
2023-01-29T04:36:15.216Z,98688.34
2023-01-29T04:40:57.430Z,98691.44
2023-01-29T04:45:36.170Z,98676.28
2023-01-29T04:50:17.920Z,98673.00
2023-01-29T04:55:03.885Z,98673.84
2023-01-29T04:59:34.161Z,98679.41
2023-01-29T05:03:54.996Z,98678.97
2023-01-29T05:08:16.330Z,98683.56
2023-01-29T05:12:35.901Z,98688.38
2023-01-29T05:16:56.590Z,98690.75
2023-01-29T05:21:14.176Z,98695.00
2023-01-29T05:25:33.845Z,98703.81
2023-01-29T05:29:51.347Z,98704.59
2023-01-29T05:34:08.916Z,98711.16
2023-01-29T05:38:26.633Z,98708.97
2023-01-29T05:42:44.441Z,98704.41
2023-01-29T05:47:02.926Z,98701.84
2023-01-29T05:51:20.714Z,98704.84
2023-01-29T05:55:38.323Z,98694.22
2023-01-29T05:59:55.441Z,98698.78
2023-01-29T06:04:12.917Z,98690.19
2023-01-29T06:08:31.045Z,98706.59
2023-01-29T06:12:48.622Z,98696.16
2023-01-29T06:17:06.534Z,98716.75
2023-01-29T06:21:24.068Z,98713.53
2023-01-29T06:25:41.621Z,98718.19
2023-01-29T06:29:59.018Z,98711.56
2023-01-29T06:34:16.869Z,98719.22
2023-01-29T06:38:34.650Z,98716.75
2023-01-29T06:42:52.221Z,98713.25
2023-01-29T06:47:09.805Z,98703.03
2023-01-29T06:51:27.684Z,98710.91
2023-01-29T06:55:52.227Z,98713.69
2023-01-29T07:00:10.887Z,98705.88
2023-01-29T07:04:28.325Z,98716.47
2023-01-29T07:08:45.897Z,98713.63
2023-01-29T07:13:03.468Z,98715.81
2023-01-29T07:17:21.549Z,98726.25
2023-01-29T07:21:39.168Z,98715.59
2023-01-29T07:25:56.757Z,98733.25
2023-01-29T07:30:15.120Z,98733.41
2023-01-29T07:34:32.801Z,98732.75
2023-01-29T07:38:51.319Z,98737.78
2023-01-29T07:43:10.114Z,98745.72
2023-01-29T07:47:27.700Z,98738.78
2023-01-29T07:51:45.258Z,98741.00
2023-01-29T07:56:02.999Z,98748.97
2023-01-29T08:00:21.287Z,98765.72
2023-01-29T08:04:38.660Z,98781.50
2023-01-29T08:08:58.144Z,98781.34
2023-01-29T08:13:15.907Z,98792.56
2023-01-29T08:17:33.585Z,98786.13
2023-01-29T08:21:51.129Z,98780.81
2023-01-29T08:26:09.272Z,98783.97
2023-01-29T08:30:28.203Z,98783.16
2023-01-29T08:34:45.823Z,98785.28
2023-01-29T08:39:03.417Z,98778.47
2023-01-29T08:43:20.581Z,98778.41
2023-01-29T08:47:38.059Z,98778.81
2023-01-29T08:51:57.138Z,98791.25
2023-01-29T08:56:16.400Z,98770.72
2023-01-29T09:00:35.284Z,98788.47
2023-01-29T09:04:52.726Z,98774.84
2023-01-29T09:09:11.400Z,98760.97
2023-01-29T09:13:29.048Z,98766.59
2023-01-29T09:17:46.793Z,98757.00
2023-01-29T09:22:04.253Z,98753.06
2023-01-29T09:26:21.944Z,98755.81
2023-01-29T09:30:39.547Z,98759.34
2023-01-29T09:34:57.949Z,98771.84
2023-01-29T09:39:15.406Z,98742.91
2023-01-29T09:43:53.408Z,98753.66
2023-01-29T09:48:11.853Z,98770.94
2023-01-29T09:52:36.227Z,98762.97
2023-01-29T09:56:57.299Z,98741.38
2023-01-29T10:01:26.333Z,98736.38
2023-01-29T10:06:12.339Z,98736.38
2023-01-29T10:11:11.332Z,98707.19
2023-01-29T10:16:01.840Z,98713.59
2023-01-29T10:21:02.390Z,98705.88
2023-01-29T10:25:22.518Z,98684.84
2023-01-29T10:29:43.309Z,98685.94
2023-01-29T10:34:11.214Z,98672.94
2023-01-29T10:38:40.061Z,98651.69
2023-01-29T10:43:31.583Z,98643.63
2023-01-29T10:47:54.717Z,98636.03
2023-01-29T10:52:57.282Z,98636.94
2023-01-29T10:57:38.000Z,98614.03
2023-01-29T11:02:03.551Z,98610.03
2023-01-29T11:06:29.987Z,98612.47
2023-01-29T11:10:58.617Z,98622.22
2023-01-29T11:15:26.670Z,98637.59
2023-01-29T11:19:47.537Z,98635.34
2023-01-29T11:24:18.782Z,98590.19
2023-01-29T11:28:48.151Z,98565.03
2023-01-29T11:33:08.332Z,98555.22
2023-01-29T11:37:36.093Z,98560.59
2023-01-29T11:42:04.181Z,98568.88
2023-01-29T11:46:21.897Z,98565.56
2023-01-29T11:50:39.344Z,98588.66
2023-01-29T11:55:03.381Z,98570.03
2023-01-29T11:59:37.230Z,98587.69
2023-01-29T12:03:55.341Z,98627.53
2023-01-29T12:08:18.213Z,98574.06
2023-01-29T12:12:42.561Z,98580.19
2023-01-29T12:17:15.907Z,98605.31
2023-01-29T12:22:03.034Z,98590.38
2023-01-29T12:26:25.920Z,98564.03
2023-01-29T12:31:14.485Z,98571.13
2023-01-29T12:36:13.954Z,98569.88
2023-01-29T12:40:47.660Z,98551.66
2023-01-29T12:45:11.128Z,98547.22
2023-01-29T12:49:33.643Z,98547.78
2023-01-29T12:54:07.689Z,98588.69
2023-01-29T12:58:28.943Z,98582.13
2023-01-29T13:03:20.871Z,98565.25
2023-01-29T13:07:46.203Z,98540.06
2023-01-29T13:12:17.365Z,98520.13
2023-01-29T13:16:41.922Z,98522.06
2023-01-29T13:21:01.136Z,98494.34
2023-01-29T13:25:20.462Z,98507.72
2023-01-29T13:29:38.159Z,98527.28
2023-01-29T13:34:10.299Z,98508.88
2023-01-29T13:38:33.614Z,98535.31
2023-01-29T13:42:54.273Z,98498.47
2023-01-29T13:47:25.117Z,98492.97
2023-01-29T13:51:42.705Z,98505.19
2023-01-29T13:56:38.543Z,98507.22
2023-01-29T14:00:56.410Z,98499.13
2023-01-29T14:05:32.479Z,98487.31
2023-01-29T14:09:50.113Z,98489.19
2023-01-29T14:14:51.438Z,98494.25
2023-01-29T14:19:19.276Z,98478.84
2023-01-29T14:23:50.834Z,98471.25
2023-01-29T14:28:21.168Z,98460.53
2023-01-29T14:32:40.702Z,98452.63
2023-01-29T14:37:15.338Z,98446.97
2023-01-29T14:41:36.595Z,98438.13
2023-01-29T14:45:54.079Z,98432.22
2023-01-29T14:50:30.363Z,98433.09
2023-01-29T14:54:50.213Z,98433.56
2023-01-29T14:59:21.056Z,98436.16
2023-01-29T15:03:49.998Z,98431.06
2023-01-29T15:08:38.239Z,98426.91
2023-01-29T15:13:19.289Z,98418.97
2023-01-29T15:17:54.832Z,98419.34
2023-01-29T15:22:22.031Z,98417.53
2023-01-29T15:26:43.283Z,98414.84
2023-01-29T15:31:05.980Z,98421.06
2023-01-29T15:35:36.034Z,98410.22
2023-01-29T15:39:54.475Z,98417.38
2023-01-29T15:44:17.415Z,98408.53
2023-01-29T15:48:40.779Z,98398.84
2023-01-29T15:53:03.945Z,98398.72
2023-01-29T15:57:31.345Z,98401.75
2023-01-29T16:01:48.509Z,98399.44
2023-01-29T16:06:07.497Z,98402.84
2023-01-29T16:10:29.082Z,98402.34
2023-01-29T16:14:48.766Z,98377.63
2023-01-29T16:19:21.796Z,98373.19
2023-01-29T16:23:49.023Z,98379.88
2023-01-29T16:28:08.156Z,98381.56
2023-01-29T16:32:26.086Z,98373.38
2023-01-29T16:36:48.380Z,98379.31
2023-01-29T16:41:31.287Z,98377.66
2023-01-29T16:46:15.966Z,98390.59
2023-01-29T16:50:46.336Z,98388.59
2023-01-29T16:55:13.479Z,98385.63
2023-01-29T16:59:39.623Z,98383.16
2023-01-29T17:04:07.241Z,98390.47
2023-01-29T17:08:33.705Z,98375.72
2023-01-29T17:12:55.480Z,98386.16
2023-01-29T17:17:18.936Z,98366.44
2023-01-29T17:21:36.601Z,98364.63
2023-01-29T17:25:54.139Z,98367.44
2023-01-29T17:30:16.806Z,98356.31
2023-01-29T17:34:34.284Z,98355.75
2023-01-29T17:38:51.822Z,98360.09
2023-01-29T17:43:11.886Z,98346.78
2023-01-29T17:47:29.513Z,98362.78
2023-01-29T17:51:46.609Z,98350.72
2023-01-29T17:56:04.559Z,98345.69
2023-01-29T18:00:24.755Z,98334.53
2023-01-29T18:04:42.536Z,98337.63
2023-01-29T18:09:00.212Z,98346.47
2023-01-29T18:13:17.997Z,98344.22
2023-01-29T18:17:35.510Z,98345.28
2023-01-29T18:21:54.395Z,98338.22
2023-01-29T18:26:12.790Z,98328.25
2023-01-29T18:30:30.589Z,98323.63
2023-01-29T18:34:48.231Z,98328.63
2023-01-29T18:39:06.023Z,98328.47
2023-01-29T18:43:26.238Z,98324.19
2023-01-29T18:47:49.547Z,98330.41
2023-01-29T18:52:08.218Z,98321.47
2023-01-29T18:56:26.042Z,98319.13
2023-01-29T19:00:43.955Z,98307.09
2023-01-29T19:05:01.978Z,98318.31
2023-01-29T19:09:19.707Z,98315.53
2023-01-29T19:13:38.331Z,98299.06
2023-01-29T19:17:56.788Z,98291.97
2023-01-29T19:22:16.860Z,98294.94
2023-01-29T19:26:34.734Z,98297.38
2023-01-29T19:30:52.499Z,98291.63
2023-01-29T19:35:10.049Z,98289.41
2023-01-29T19:39:32.837Z,98296.22
2023-01-29T19:43:50.300Z,98290.34
2023-01-29T19:48:08.381Z,98284.22
2023-01-29T19:52:50.374Z,98277.06
2023-01-29T19:57:09.305Z,98284.53
2023-01-29T20:01:29.629Z,98285.03
2023-01-29T20:05:48.452Z,98271.66
2023-01-29T20:10:10.100Z,98279.56
2023-01-29T20:14:27.586Z,98274.69
2023-01-29T20:18:45.263Z,98270.19
2023-01-29T20:23:02.724Z,98263.13
2023-01-29T20:27:20.371Z,98266.97
2023-01-29T20:31:37.866Z,98259.78
2023-01-29T20:35:58.616Z,98258.00
2023-01-29T20:40:16.791Z,98260.53
2023-01-29T20:44:34.547Z,98259.56
2023-01-29T20:48:54.140Z,98252.94
2023-01-29T20:53:12.110Z,98242.44
2023-01-29T20:57:29.863Z,98253.41
2023-01-29T21:01:47.487Z,98252.72
2023-01-29T21:06:06.321Z,98245.13
2023-01-29T21:10:24.282Z,98236.19
2023-01-29T21:14:41.775Z,98236.97
2023-01-29T21:19:00.208Z,98215.66
2023-01-29T21:23:18.032Z,98203.56
2023-01-29T21:27:36.071Z,98202.78
2023-01-29T21:31:53.593Z,98195.44
2023-01-29T21:36:12.223Z,98188.63
2023-01-29T21:40:30.654Z,98192.13
2023-01-29T21:44:48.277Z,98187.63
2023-01-29T21:49:05.879Z,98177.47
2023-01-29T21:53:23.570Z,98179.59
2023-01-29T21:57:42.904Z,98173.00
2023-01-29T22:02:01.601Z,98169.22
2023-01-29T22:06:19.159Z,98157.75
2023-01-29T22:10:37.947Z,98144.59
2023-01-29T22:14:55.473Z,98138.53
2023-01-29T22:19:14.012Z,98138.06
2023-01-29T22:23:32.528Z,98135.78
2023-01-29T22:27:51.137Z,98115.69
2023-01-29T22:32:10.123Z,98107.25
2023-01-29T22:36:27.673Z,98100.69
2023-01-29T22:40:56.464Z,98099.13
2023-01-29T22:45:14.042Z,98098.53
2023-01-29T22:49:31.620Z,98095.56
2023-01-29T22:53:56.928Z,98083.94
2023-01-29T22:58:14.395Z,98078.06
2023-01-29T23:02:31.992Z,98075.81
2023-01-29T23:06:49.503Z,98060.63
2023-01-29T23:11:17.912Z,98050.31
2023-01-29T23:15:35.346Z,98045.03
2023-01-29T23:19:52.977Z,98035.97
2023-01-29T23:24:10.923Z,98029.09
2023-01-29T23:28:28.710Z,98023.00
2023-01-29T23:32:46.285Z,98008.66
2023-01-29T23:37:03.682Z,97991.91
2023-01-29T23:41:21.584Z,97986.91
2023-01-29T23:45:39.052Z,97985.34
2023-01-29T23:49:56.748Z,97974.25
2023-01-29T23:54:14.476Z,97962.38
2023-01-29T23:58:32.853Z,97953.19
